createdAt,value
2024-04-09T00:00:39.019Z,20.97
2024-04-09T00:03:05.854Z,20.98
2024-04-09T00:05:32.622Z,20.39
2024-04-09T00:07:59.479Z,20.63
2024-04-09T00:10:28.836Z,20.81
2024-04-09T00:12:55.542Z,20.88
2024-04-09T00:15:22.483Z,20.18
2024-04-09T00:17:49.308Z,20.00
2024-04-09T00:20:16.235Z,19.79
2024-04-09T00:22:42.957Z,20.29
2024-04-09T00:25:09.676Z,20.62
2024-04-09T00:27:40.826Z,20.63
2024-04-09T00:30:09.729Z,20.41
2024-04-09T00:32:36.506Z,20.74
2024-04-09T00:35:03.485Z,20.99
2024-04-09T00:37:30.196Z,20.58
2024-04-09T00:39:57.028Z,20.89
2024-04-09T00:42:23.850Z,21.15
2024-04-09T00:44:53.388Z,21.23
2024-04-09T00:47:20.584Z,21.47
2024-04-09T00:49:47.825Z,21.45
2024-04-09T00:52:14.962Z,21.41
2024-04-09T00:54:43.611Z,21.42
2024-04-09T00:57:11.475Z,21.41
2024-04-09T00:59:40.007Z,21.28
2024-04-09T01:02:10.243Z,21.70
2024-04-09T01:04:37.533Z,21.82
2024-04-09T01:07:04.725Z,21.88
2024-04-09T01:09:31.979Z,22.06
2024-04-09T01:11:59.243Z,22.17
2024-04-09T01:14:28.562Z,21.93
2024-04-09T01:16:56.611Z,21.74
2024-04-09T01:19:26.302Z,21.84
2024-04-09T01:21:53.456Z,21.73
2024-04-09T01:24:23.284Z,21.64
2024-04-09T01:26:52.007Z,21.82
2024-04-09T01:29:19.427Z,21.75
2024-04-09T01:31:46.542Z,21.93
2024-04-09T01:34:13.758Z,21.87
2024-04-09T01:36:40.923Z,21.97
2024-04-09T01:39:08.713Z,22.14
2024-04-09T01:41:39.276Z,21.87
2024-04-09T01:44:06.414Z,22.22
2024-04-09T01:46:33.588Z,21.98
2024-04-09T01:49:01.040Z,22.14
2024-04-09T01:51:28.215Z,22.37
2024-04-09T01:53:55.370Z,22.20
2024-04-09T01:56:22.558Z,22.20
2024-04-09T01:58:52.290Z,22.45
2024-04-09T02:01:19.367Z,22.28
2024-04-09T02:03:46.624Z,22.39
2024-04-09T02:06:17.380Z,22.30
2024-04-09T02:08:44.597Z,22.10
2024-04-09T02:11:11.756Z,22.15
2024-04-09T02:13:39.057Z,22.00
2024-04-09T02:16:09.150Z,21.93
2024-04-09T02:18:36.397Z,22.18
2024-04-09T02:21:03.735Z,21.97
2024-04-09T02:23:30.845Z,21.89
2024-04-09T02:25:58.005Z,21.91
2024-04-09T02:28:25.088Z,21.36
2024-04-09T02:30:52.227Z,21.46
2024-04-09T02:33:22.268Z,21.15
2024-04-09T02:35:55.889Z,21.02
2024-04-09T02:38:23.070Z,20.88
2024-04-09T02:40:50.287Z,20.87
2024-04-09T02:43:17.411Z,20.68
2024-04-09T02:45:44.558Z,20.46
2024-04-09T02:48:11.903Z,20.87
2024-04-09T02:50:41.880Z,20.57
2024-04-09T02:53:09.505Z,20.42
2024-04-09T02:55:36.921Z,20.70
2024-04-09T02:58:04.539Z,20.52
2024-04-09T03:00:31.845Z,20.05
2024-04-09T03:02:58.975Z,20.10
2024-04-09T03:05:29.820Z,19.79
2024-04-09T03:08:00.244Z,20.14
2024-04-09T03:10:33.426Z,20.21
2024-04-09T03:13:00.740Z,19.66
2024-04-09T03:15:30.104Z,19.61
2024-04-09T03:17:57.496Z,19.74
2024-04-09T03:20:24.878Z,19.50
2024-04-09T03:22:53.577Z,19.20
2024-04-09T03:25:23.421Z,19.10
2024-04-09T03:27:51.380Z,18.69
2024-04-09T03:30:18.359Z,18.73
2024-04-09T03:32:45.177Z,18.37
2024-04-09T03:35:11.942Z,18.22
2024-04-09T03:37:38.639Z,18.09
2024-04-09T03:40:06.761Z,17.85
2024-04-09T03:42:36.233Z,17.67
2024-04-09T03:45:03.137Z,17.44
2024-04-09T03:47:30.156Z,17.20
2024-04-09T03:49:56.921Z,17.18
2024-04-09T03:52:23.667Z,17.02
2024-04-09T03:54:50.393Z,17.07
2024-04-09T03:57:17.261Z,16.95
2024-04-09T03:59:46.657Z,16.78
2024-04-09T04:02:13.379Z,16.65
2024-04-09T04:04:40.284Z,16.66
2024-04-09T04:07:07.150Z,16.55
2024-04-09T04:09:33.937Z,16.50
2024-04-09T04:12:00.738Z,16.59
2024-04-09T04:14:27.606Z,16.65
2024-04-09T04:16:57.066Z,16.68
2024-04-09T04:19:23.936Z,16.62
2024-04-09T04:21:50.853Z,16.31
2024-04-09T04:24:17.713Z,16.41
2024-04-09T04:26:44.915Z,15.64
2024-04-09T04:29:12.066Z,15.87
2024-04-09T04:31:39.792Z,15.81
2024-04-09T04:34:09.602Z,15.86
2024-04-09T04:36:36.781Z,16.16
2024-04-09T04:39:04.173Z,16.07
2024-04-09T04:41:31.369Z,15.67
2024-04-09T04:43:58.656Z,15.62
2024-04-09T04:46:44.164Z,15.77
2024-04-09T04:49:14.165Z,15.96
2024-04-09T04:51:41.599Z,15.75
2024-04-09T04:54:08.827Z,15.35
2024-04-09T04:56:35.973Z,15.38
2024-04-09T04:59:02.722Z,15.58
2024-04-09T05:01:29.606Z,14.83
2024-04-09T05:03:56.411Z,14.87
2024-04-09T05:06:25.857Z,15.28
2024-04-09T05:08:52.555Z,15.57
2024-04-09T05:11:19.346Z,15.61
2024-04-09T05:13:46.135Z,15.80
2024-04-09T05:16:12.942Z,15.52
2024-04-09T05:18:39.731Z,14.82
2024-04-09T05:21:06.604Z,14.91
2024-04-09T05:23:36.022Z,14.92
2024-04-09T05:26:02.798Z,14.37
2024-04-09T05:28:29.541Z,14.14
2024-04-09T05:30:56.382Z,14.04
2024-04-09T05:33:23.277Z,14.17
2024-04-09T05:35:52.286Z,13.88
2024-04-09T05:38:18.958Z,13.48
2024-04-09T05:40:55.905Z,13.16
2024-04-09T05:43:22.726Z,12.98
2024-04-09T05:45:49.565Z,12.38
2024-04-09T05:48:16.505Z,12.51
2024-04-09T05:50:43.447Z,12.93
2024-04-09T05:53:10.177Z,12.67
2024-04-09T05:55:36.893Z,12.74
2024-04-09T05:58:06.892Z,12.53
2024-04-09T06:00:34.328Z,12.23
2024-04-09T06:03:01.803Z,11.88
2024-04-09T06:05:29.176Z,11.95
2024-04-09T06:07:56.374Z,11.99
2024-04-09T06:10:23.537Z,11.74
2024-04-09T06:12:50.662Z,11.87
2024-04-09T06:15:20.552Z,12.30
2024-04-09T06:17:47.851Z,12.62
2024-04-09T06:20:15.314Z,12.35
2024-04-09T06:22:42.579Z,12.83
2024-04-09T06:25:10.003Z,12.59
2024-04-09T06:27:37.208Z,12.93
2024-04-09T06:30:05.224Z,13.35
2024-04-09T06:32:35.103Z,13.74
2024-04-09T06:35:02.376Z,13.89
2024-04-09T06:37:29.558Z,14.22
2024-04-09T06:39:56.694Z,14.24
2024-04-09T06:42:23.917Z,14.43
2024-04-09T06:44:51.814Z,14.79
2024-04-09T06:47:18.928Z,14.95
2024-04-09T06:49:48.940Z,15.10
2024-04-09T06:52:16.104Z,15.25
2024-04-09T06:54:43.219Z,15.29
2024-04-09T06:57:10.551Z,15.09
2024-04-09T06:59:37.780Z,14.92
2024-04-09T07:02:04.982Z,14.72
2024-04-09T07:04:33.769Z,14.76
2024-04-09T07:07:06.028Z,14.12
2024-04-09T07:09:34.544Z,13.99
2024-04-09T07:12:03.937Z,13.97
2024-04-09T07:14:31.228Z,13.81
2024-04-09T07:16:59.749Z,13.17
2024-04-09T07:19:27.518Z,13.45
2024-04-09T07:21:54.924Z,12.72
2024-04-09T07:24:24.700Z,12.38
2024-04-09T07:26:52.245Z,12.23
2024-04-09T07:29:19.838Z,11.94
2024-04-09T07:31:47.035Z,12.16
2024-04-09T07:34:14.178Z,12.04
2024-04-09T07:36:41.673Z,12.01
2024-04-09T07:39:09.105Z,11.44
2024-04-09T07:41:38.949Z,11.33
2024-04-09T07:44:06.989Z,11.11
2024-04-09T07:46:34.307Z,11.10
2024-04-09T07:49:01.830Z,11.14
2024-04-09T07:51:29.495Z,11.29
2024-04-09T07:53:56.950Z,11.16
2024-04-09T07:56:25.080Z,11.34
2024-04-09T07:58:54.839Z,11.16
2024-04-09T08:01:22.209Z,11.21
2024-04-09T08:03:53.080Z,11.45
2024-04-09T08:06:20.661Z,11.71
2024-04-09T08:08:49.449Z,12.09
2024-04-09T08:11:17.149Z,11.92
2024-04-09T08:13:45.379Z,11.94
2024-04-09T08:16:15.265Z,11.39
2024-04-09T08:18:42.478Z,11.18
2024-04-09T08:23:56.859Z,11.61
2024-04-09T08:26:23.981Z,11.62
2024-04-09T08:28:51.676Z,11.82
2024-04-09T08:31:28.905Z,11.87
2024-04-09T08:33:56.054Z,11.87
2024-04-09T08:36:23.689Z,11.33
2024-04-09T08:38:52.792Z,11.27
2024-04-09T08:41:19.891Z,11.41
2024-04-09T08:43:49.056Z,11.57
2024-04-09T08:46:17.345Z,11.41
2024-04-09T08:48:49.891Z,11.27
2024-04-09T08:53:59.667Z,11.33
2024-04-09T08:56:26.618Z,11.11
2024-04-09T08:58:53.563Z,10.66
2024-04-09T09:01:30.715Z,10.40
2024-04-09T09:04:00.454Z,10.30
2024-04-09T09:06:27.709Z,10.74
2024-04-09T09:08:54.619Z,10.53
2024-04-09T09:11:22.300Z,10.47
2024-04-09T09:13:49.166Z,10.60
2024-04-09T09:16:16.537Z,10.42
2024-04-09T09:18:43.710Z,10.22
2024-04-09T09:21:15.283Z,10.18
2024-04-09T09:26:24.343Z,10.00
2024-04-09T09:29:01.433Z,10.03
2024-04-09T09:31:30.563Z,9.99
2024-04-09T09:34:01.268Z,9.76
2024-04-09T09:36:32.930Z,9.90
2024-04-09T09:39:01.576Z,10.11
2024-04-09T09:41:32.330Z,9.76
2024-04-09T09:44:01.506Z,9.84
2024-04-09T09:46:30.566Z,9.84
2024-04-09T09:49:00.546Z,9.88
2024-04-09T09:51:32.284Z,9.99
2024-04-09T09:53:59.683Z,10.13
2024-04-09T09:56:30.081Z,9.85
2024-04-09T09:59:00.301Z,10.10
2024-04-09T10:01:29.578Z,9.92
2024-04-09T10:03:57.031Z,10.14
2024-04-09T10:06:28.714Z,9.89
2024-04-09T10:09:06.906Z,9.93
2024-04-09T10:11:34.550Z,9.96
2024-04-09T10:14:03.330Z,9.88
2024-04-09T10:16:30.389Z,9.88
2024-04-09T10:18:58.960Z,9.99
2024-04-09T10:21:30.174Z,10.13
2024-04-09T10:24:03.210Z,10.17
2024-04-09T10:26:31.512Z,10.33
2024-04-09T10:29:06.669Z,10.28
2024-04-09T10:31:44.318Z,10.36
2024-04-09T10:34:11.631Z,10.53
2024-04-09T10:36:39.166Z,10.75
2024-04-09T10:39:10.217Z,10.66
2024-04-09T10:41:37.182Z,10.73
2024-04-09T10:44:03.986Z,10.74
2024-04-09T10:46:30.993Z,10.64
2024-04-09T10:48:58.416Z,10.77
2024-04-09T10:51:25.623Z,10.69
2024-04-09T10:54:01.870Z,10.58
2024-04-09T10:56:31.544Z,10.56
2024-04-09T10:58:58.580Z,10.52
2024-04-09T11:01:25.681Z,10.47
2024-04-09T11:03:53.001Z,10.86
2024-04-09T11:06:20.366Z,10.82
2024-04-09T11:08:47.565Z,10.80
2024-04-09T11:11:15.900Z,11.20
2024-04-09T11:13:47.684Z,11.51
2024-04-09T11:16:17.824Z,11.67
2024-04-09T11:18:55.569Z,11.59
2024-04-09T11:21:22.615Z,11.56
2024-04-09T11:23:49.934Z,11.91
2024-04-09T11:26:16.729Z,11.96
2024-04-09T11:28:52.516Z,11.95
2024-04-09T11:31:22.451Z,12.26
2024-04-09T11:33:50.785Z,12.28
2024-04-09T11:36:24.705Z,12.47
2024-04-09T11:38:57.644Z,12.53
2024-04-09T11:41:24.995Z,12.71
2024-04-09T11:43:57.730Z,12.93
2024-04-09T11:46:24.799Z,12.97
2024-04-09T11:48:52.062Z,12.82
2024-04-09T11:51:19.358Z,13.24
2024-04-09T11:53:46.502Z,13.31
2024-04-09T11:56:13.558Z,13.33
2024-04-09T11:58:40.790Z,13.56
2024-04-09T12:01:10.568Z,13.71
2024-04-09T12:03:38.191Z,13.61
2024-04-09T12:06:05.272Z,13.85
2024-04-09T12:08:32.084Z,13.99
2024-04-09T12:10:59.081Z,14.13
2024-04-09T12:13:25.938Z,14.14
2024-04-09T12:15:52.777Z,14.23
2024-04-09T12:18:22.525Z,14.18
2024-04-09T12:20:49.618Z,14.27
2024-04-09T12:23:18.973Z,14.33
2024-04-09T12:25:47.243Z,14.43
2024-04-09T12:28:13.935Z,14.46
2024-04-09T12:30:41.009Z,14.57
2024-04-09T12:33:08.228Z,14.68
2024-04-09T12:35:37.961Z,14.76
2024-04-09T12:38:04.959Z,14.71
2024-04-09T12:40:31.692Z,14.71
2024-04-09T12:42:58.419Z,14.81
2024-04-09T12:45:25.488Z,14.77
2024-04-09T12:47:52.501Z,14.72
2024-04-09T12:50:19.562Z,14.47
2024-04-09T12:52:49.229Z,14.26
2024-04-09T12:55:16.094Z,14.24
2024-04-09T12:57:42.788Z,14.15
2024-04-09T13:02:41.542Z,13.68
2024-04-09T13:05:09.072Z,13.78
2024-04-09T13:07:36.620Z,13.91
2024-04-09T13:10:08.877Z,14.05
2024-04-09T13:12:36.606Z,14.00
2024-04-09T13:17:34.568Z,14.14
2024-04-09T13:20:01.906Z,14.07
2024-04-09T13:22:29.041Z,13.98
2024-04-09T13:24:56.254Z,14.16
2024-04-09T13:27:26.031Z,14.18
2024-04-09T13:29:53.096Z,14.30
2024-04-09T13:32:21.004Z,14.38
2024-04-09T13:34:48.304Z,14.43
2024-04-09T13:37:15.632Z,14.47
2024-04-09T13:39:45.084Z,14.60
2024-04-09T13:42:13.614Z,14.44
2024-04-09T13:44:43.379Z,14.17
2024-04-09T13:47:10.810Z,14.14
2024-04-09T13:49:38.011Z,14.25
2024-04-09T13:52:04.830Z,14.09
2024-04-09T13:54:31.572Z,13.65
2024-04-09T13:56:58.290Z,13.97
2024-04-09T13:59:24.984Z,13.97
2024-04-09T14:01:54.553Z,13.97
2024-04-09T14:04:21.423Z,13.93
2024-04-09T14:06:48.347Z,14.15
2024-04-09T14:09:15.181Z,14.07
2024-04-09T14:11:42.273Z,13.57
2024-04-09T14:14:09.197Z,14.00
2024-04-09T14:16:36.060Z,13.96
2024-04-09T14:19:05.832Z,13.93
2024-04-09T14:21:32.944Z,13.99
2024-04-09T14:23:59.668Z,14.17
2024-04-09T14:26:26.719Z,14.14
2024-04-09T14:28:53.606Z,14.18
2024-04-09T14:31:20.939Z,14.14
2024-04-09T14:33:48.055Z,14.17
2024-04-09T14:36:18.150Z,14.28
2024-04-09T14:38:45.298Z,14.15
2024-04-09T14:41:15.201Z,14.03
2024-04-09T14:43:43.460Z,13.79
2024-04-09T14:46:10.190Z,14.02
2024-04-09T14:48:37.353Z,13.87
2024-04-09T14:51:05.097Z,13.70
2024-04-09T14:53:35.050Z,13.73
2024-04-09T14:56:02.646Z,13.80
2024-04-09T14:58:29.902Z,13.97
2024-04-09T15:00:56.993Z,13.94
2024-04-09T15:03:24.345Z,13.92
2024-04-09T15:05:52.841Z,13.85
2024-04-09T15:08:20.246Z,13.85
2024-04-09T15:10:57.575Z,13.85
2024-04-09T15:13:25.952Z,13.95
2024-04-09T15:15:53.065Z,13.70
2024-04-09T15:18:20.546Z,13.96
2024-04-09T15:20:47.525Z,13.99
2024-04-09T15:23:14.339Z,14.04
2024-04-09T15:25:44.714Z,14.03
2024-04-09T15:28:14.134Z,14.04
2024-04-09T15:30:41.030Z,14.07
2024-04-09T15:33:08.227Z,13.97
2024-04-09T15:35:35.374Z,13.72
2024-04-09T15:38:02.139Z,13.91
2024-04-09T15:40:29.100Z,13.80
2024-04-09T15:42:56.014Z,13.64
2024-04-09T15:45:25.459Z,13.67
2024-04-09T15:47:52.376Z,13.63
2024-04-09T15:50:19.833Z,13.62
2024-04-09T15:52:46.885Z,13.64
2024-04-09T15:55:17.392Z,13.41
2024-04-09T15:57:45.099Z,13.39
2024-04-09T16:00:13.315Z,13.28
2024-04-09T16:02:43.305Z,13.34
2024-04-09T16:05:10.308Z,13.44
2024-04-09T16:07:38.083Z,13.35
2024-04-09T16:10:06.562Z,13.58
2024-04-09T16:12:33.947Z,13.46
2024-04-09T16:15:00.980Z,13.31
2024-04-09T16:17:28.007Z,13.18
2024-04-09T16:19:58.303Z,13.01
2024-04-09T16:22:25.512Z,13.34
2024-04-09T16:24:53.736Z,13.35
2024-04-09T16:27:22.116Z,13.35
2024-04-09T16:29:49.321Z,13.47
2024-04-09T16:32:17.804Z,13.28
2024-04-09T16:34:45.286Z,13.27
2024-04-09T16:37:15.323Z,13.17
2024-04-09T16:39:42.523Z,13.10
2024-04-09T16:42:09.696Z,12.72
2024-04-09T16:44:36.938Z,12.89
2024-04-09T16:47:04.683Z,12.88
2024-04-09T16:49:31.983Z,12.98
2024-04-09T16:51:59.136Z,12.85
2024-04-09T16:54:28.976Z,13.09
2024-04-09T16:56:56.122Z,13.18
2024-04-09T16:59:23.514Z,12.63
2024-04-09T17:01:50.932Z,12.83
2024-04-09T17:04:18.513Z,12.91
2024-04-09T17:06:45.824Z,12.65
2024-04-09T17:09:13.164Z,12.55
2024-04-09T17:11:43.793Z,12.76
2024-04-09T17:14:11.116Z,12.80
2024-04-09T17:16:38.437Z,13.13
2024-04-09T17:19:05.681Z,13.00
2024-04-09T17:21:33.156Z,13.15
2024-04-09T17:24:00.358Z,13.26
2024-04-09T17:26:27.585Z,13.38
2024-04-09T17:28:57.478Z,13.42
2024-04-09T17:31:24.711Z,13.55
2024-04-09T17:33:51.979Z,13.54
2024-04-09T17:36:18.861Z,13.61
2024-04-09T17:38:45.744Z,13.57
2024-04-09T17:41:12.462Z,13.66
2024-04-09T17:43:39.264Z,13.67
2024-04-09T17:46:08.574Z,13.66
2024-04-09T17:48:35.556Z,13.64
2024-04-09T17:51:02.513Z,13.78
2024-04-09T17:53:29.453Z,13.68
2024-04-09T17:55:56.344Z,13.62
2024-04-09T17:58:23.489Z,13.63
2024-04-09T18:00:50.298Z,13.78
2024-04-09T18:03:19.658Z,13.77
2024-04-09T18:05:46.599Z,13.81
2024-04-09T18:08:13.367Z,13.84
2024-04-09T18:10:43.398Z,13.77
2024-04-09T18:13:10.380Z,13.70
2024-04-09T18:15:37.404Z,13.72
2024-04-09T18:18:04.639Z,13.71
2024-04-09T18:20:34.360Z,13.61
2024-04-09T18:23:01.379Z,13.69
2024-04-09T18:25:28.218Z,13.62
2024-04-09T18:27:55.055Z,13.58
2024-04-09T18:30:21.872Z,13.49
2024-04-09T18:32:49.102Z,13.49
2024-04-09T18:35:16.878Z,13.51
2024-04-09T18:37:46.719Z,13.56
2024-04-09T18:40:13.988Z,13.50
2024-04-09T18:42:41.256Z,13.44
2024-04-09T18:45:08.483Z,13.41
2024-04-09T18:47:35.867Z,13.41
2024-04-09T18:50:04.447Z,13.36
2024-04-09T18:52:31.999Z,13.36
2024-04-09T18:55:01.939Z,13.37
2024-04-09T18:57:29.549Z,13.38
2024-04-09T18:59:56.870Z,13.43
2024-04-09T19:02:23.860Z,13.43
2024-04-09T19:04:50.859Z,13.43
2024-04-09T19:07:17.668Z,13.27
2024-04-09T19:09:44.386Z,13.30
2024-04-09T19:12:13.873Z,13.19
2024-04-09T19:14:40.656Z,13.20
2024-04-09T19:17:07.528Z,13.13
2024-04-09T19:19:34.337Z,13.20
2024-04-09T19:22:01.254Z,13.13
2024-04-09T19:24:27.996Z,13.17
2024-04-09T19:26:54.754Z,13.16
2024-04-09T19:29:24.373Z,13.17
2024-04-09T19:31:51.211Z,13.07
2024-04-09T19:34:18.082Z,13.15
2024-04-09T19:36:45.081Z,13.10
2024-04-09T19:39:11.970Z,13.03
2024-04-09T19:41:39.649Z,13.02
2024-04-09T19:44:17.321Z,12.96
2024-04-09T19:46:51.453Z,12.96
2024-04-09T19:49:20.422Z,12.94
2024-04-09T19:51:47.324Z,12.78
2024-04-09T19:54:14.192Z,12.82
2024-04-09T19:56:40.964Z,12.80
2024-04-09T19:59:07.894Z,12.84
2024-04-09T20:01:35.451Z,12.84
2024-04-09T20:04:05.467Z,12.79
2024-04-09T20:06:32.576Z,12.74
2024-04-09T20:08:59.344Z,12.78
2024-04-09T20:11:26.390Z,12.82
2024-04-09T20:13:53.457Z,12.84
2024-04-09T20:16:20.440Z,12.85
2024-04-09T20:18:47.449Z,12.72
2024-04-09T20:21:17.178Z,12.75
2024-04-09T20:23:47.167Z,12.76
2024-04-09T20:26:14.188Z,12.68
2024-04-09T20:28:40.969Z,12.60
2024-04-09T20:31:07.700Z,12.54
2024-04-09T20:33:34.712Z,12.19
2024-04-09T20:36:01.939Z,12.16
2024-04-09T20:38:31.750Z,12.19
2024-04-09T20:40:59.700Z,12.21
2024-04-09T20:43:27.083Z,12.19
2024-04-09T20:45:54.097Z,12.16
2024-04-09T20:48:22.094Z,11.52
2024-04-09T20:50:49.272Z,11.96
2024-04-09T20:53:16.217Z,12.08
2024-04-09T20:55:45.931Z,12.15
2024-04-09T20:58:12.891Z,12.12
2024-04-09T21:00:39.997Z,11.95
2024-04-09T21:03:07.503Z,12.04
2024-04-09T21:05:36.212Z,11.91
2024-04-09T21:08:04.343Z,11.77
2024-04-09T21:10:32.908Z,11.83
2024-04-09T21:13:03.054Z,11.51
2024-04-09T21:15:30.580Z,11.72
2024-04-09T21:17:58.134Z,11.67
2024-04-09T21:20:25.379Z,10.66
2024-04-09T21:22:52.388Z,10.72
2024-04-09T21:25:20.312Z,10.49
2024-04-09T21:27:47.279Z,9.86
2024-04-09T21:30:17.021Z,10.05
2024-04-09T21:32:44.028Z,10.29
2024-04-09T21:35:10.923Z,10.53
2024-04-09T21:37:37.738Z,10.48
2024-04-09T21:40:05.266Z,10.72
2024-04-09T21:42:32.018Z,10.12
2024-04-09T21:44:58.771Z,10.45
2024-04-09T21:47:28.689Z,10.39
2024-04-09T21:49:55.555Z,10.22
2024-04-09T21:52:22.472Z,10.51
2024-04-09T21:54:49.422Z,10.64
2024-04-09T21:57:16.226Z,10.77
2024-04-09T21:59:43.264Z,10.93
2024-04-09T22:02:10.114Z,11.11
2024-04-09T22:04:40.089Z,11.10
2024-04-09T22:07:06.978Z,10.98
2024-04-09T22:09:33.754Z,10.53
2024-04-09T22:12:00.654Z,10.80
2024-04-09T22:14:27.666Z,10.49
2024-04-09T22:16:54.533Z,10.86
2024-04-09T22:19:21.939Z,10.69
2024-04-09T22:21:51.715Z,10.83
2024-04-09T22:24:19.182Z,10.46
2024-04-09T22:26:46.568Z,10.57
2024-04-09T22:29:14.338Z,10.64
2024-04-09T22:31:41.715Z,10.84
2024-04-09T22:34:10.561Z,11.06
2024-04-09T22:36:37.976Z,11.21
2024-04-09T22:39:07.736Z,11.27
2024-04-09T22:41:34.738Z,11.33
2024-04-09T22:44:02.357Z,11.32
2024-04-09T22:46:29.384Z,11.43
2024-04-09T22:48:56.510Z,11.00
2024-04-09T22:51:23.519Z,11.27
2024-04-09T22:53:53.195Z,11.49
2024-04-09T22:56:23.059Z,11.54
2024-04-09T22:58:50.224Z,11.54
2024-04-09T23:01:17.440Z,11.52
2024-04-09T23:03:44.852Z,11.56
2024-04-09T23:06:12.075Z,11.59
2024-04-09T23:08:39.414Z,11.72
2024-04-09T23:11:08.337Z,11.78
2024-04-09T23:13:38.763Z,11.74
2024-04-09T23:16:06.956Z,11.87
2024-04-09T23:18:34.816Z,11.79
2024-04-09T23:21:02.255Z,11.69
2024-04-09T23:23:29.856Z,11.91
2024-04-09T23:25:56.847Z,11.90
2024-04-09T23:28:24.120Z,11.94
2024-04-09T23:30:53.624Z,11.98
2024-04-09T23:33:20.607Z,11.88
2024-04-09T23:35:47.623Z,11.74
2024-04-09T23:38:14.496Z,11.81
2024-04-09T23:40:42.878Z,11.89
2024-04-09T23:43:11.836Z,11.78
2024-04-09T23:45:39.435Z,11.80
2024-04-09T23:48:09.621Z,11.78
2024-04-09T23:50:36.916Z,11.72
2024-04-09T23:53:04.331Z,11.71
2024-04-09T23:55:31.226Z,11.54
2024-04-09T23:57:58.386Z,11.49
